Time;durP1;ratioP1;P1;durP2;ratioP2;P2;SDS_P1;SDS_P2;PMS_P1;PMS_P2;Temp;Humidity;BMP_temperature;BMP_pressure;BME280_temperature;BME280_humidity;BME280_pressure;Samples;Min_cycle;Max_cycle;Signal;HPM_P1;HPM_P2
2021/12/15 00:01:49;;;;;;;19.95;12.18;;;25.50;99.90;;;;;;5109987;28;20308;-66
2021/12/15 00:04:16;;;;;;;22.10;12.88;;;25.30;99.90;;;;;;5116839;28;20502;-65
2021/12/15 00:06:43;;;;;;;22.58;13.55;;;25.40;99.90;;;;;;5117011;28;20035;-66
2021/12/15 00:09:12;;;;;;;52.92;20.73;;;25.50;99.90;;;;;;5114507;28;20031;-66
2021/12/15 00:11:39;;;;;;;174.75;30.60;;;25.60;99.90;;;;;;5115878;28;20027;-65
2021/12/15 00:14:14;;;;;;;64.45;18.33;;;25.60;99.90;;;;;;5115712;28;20019;-63
2021/12/15 00:16:41;;;;;;;138.35;24.05;;;25.60;99.90;;;;;;5115772;28;20111;-65
2021/12/15 00:19:08;;;;;;;15.60;11.40;;;25.70;99.90;;;;;;5100536;28;20020;-65
2021/12/15 00:21:35;;;;;;;19.50;12.40;;;25.70;99.90;;;;;;5095003;28;20024;-65
2021/12/15 00:24:04;;;;;;;21.80;12.45;;;25.60;99.90;;;;;;5108228;28;20039;-65
2021/12/15 00:26:31;;;;;;;21.48;11.77;;;25.70;99.90;;;;;;5115156;28;20051;-65
2021/12/15 00:28:58;;;;;;;19.17;12.40;;;25.80;99.90;;;;;;5113949;28;20042;-67
2021/12/15 00:31:28;;;;;;;21.23;11.95;;;25.80;99.90;;;;;;5101063;28;20040;-65
2021/12/15 00:33:54;;;;;;;16.45;11.10;;;26.00;99.90;;;;;;5102972;28;20342;-67
2021/12/15 00:36:21;;;;;;;19.20;11.25;;;26.00;99.90;;;;;;5105157;28;20073;-66
2021/12/15 00:38:48;;;;;;;18.55;11.35;;;26.00;99.90;;;;;;5095011;28;20024;-66
2021/12/15 00:41:14;;;;;;;20.60;11.10;;;26.00;99.90;;;;;;5094848;28;20024;-65
2021/12/15 00:43:41;;;;;;;23.80;10.50;;;26.10;99.90;;;;;;5094873;28;20035;-67
2021/12/15 00:46:08;;;;;;;18.45;10.10;;;26.10;99.90;;;;;;5095885;28;20451;-68
2021/12/15 00:48:35;;;;;;;18.50;10.68;;;26.20;99.90;;;;;;5094608;28;20020;-64
2021/12/15 00:51:02;;;;;;;18.80;10.40;;;26.20;99.90;;;;;;5094228;28;20047;-64
2021/12/15 00:53:30;;;;;;;35.33;23.58;;;26.40;99.90;;;;;;5094427;28;20373;-65
2021/12/15 00:55:57;;;;;;;20.77;9.30;;;26.60;99.90;;;;;;5095796;28;20388;-66
2021/12/15 00:58:24;;;;;;;12.30;7.80;;;26.60;99.90;;;;;;5095463;28;20231;-65
2021/12/15 01:00:55;;;;;;;18.52;7.90;;;26.70;99.90;;;;;;5093921;28;20143;-66
2021/12/15 01:03:23;;;;;;;19.23;9.35;;;26.70;99.90;;;;;;5094933;28;20032;-65
2021/12/15 01:05:53;;;;;;;17.45;8.57;;;26.70;99.90;;;;;;5114158;28;20024;-65
2021/12/15 01:08:25;;;;;;;12.13;7.53;;;26.80;99.90;;;;;;5114541;28;20465;-65
2021/12/15 01:11:06;;;;;;;11.45;5.72;;;26.80;99.90;;;;;;5114589;28;20118;-66
2021/12/15 01:21:34;;;;;;;12.95;6.50;;;26.80;99.90;;;;;;5113670;28;20109;-66
2021/12/15 01:24:01;;;;;;;14.15;6.80;;;26.70;99.90;;;;;;5114393;28;20032;-66
2021/12/15 01:26:28;;;;;;;16.27;7.78;;;26.80;99.90;;;;;;5114413;28;20037;-65
2021/12/15 01:28:54;;;;;;;15.07;7.85;;;26.90;99.90;;;;;;5114164;28;20027;-66
2021/12/15 01:31:21;;;;;;;18.30;7.05;;;27.00;99.90;;;;;;5112540;28;20027;-66
2021/12/15 01:33:48;;;;;;;17.73;7.28;;;27.10;99.90;;;;;;5114635;28;20072;-66
2021/12/15 01:36:15;;;;;;;11.48;5.95;;;27.20;99.90;;;;;;5114743;28;20015;-65
2021/12/15 01:38:44;;;;;;;12.32;7.38;;;27.30;99.90;;;;;;5114188;28;20027;-65
2021/12/15 01:41:19;;;;;;;15.43;6.85;;;27.30;99.90;;;;;;5112452;28;20031;-63
2021/12/15 01:46:52;;;;;;;12.98;7.03;;;27.30;99.90;;;;;;5115255;28;20050;-64
2021/12/15 01:49:31;;;;;;;12.70;6.53;;;27.30;99.90;;;;;;5113919;28;20028;-65
2021/12/15 01:52:03;;;;;;;15.15;7.38;;;27.30;99.90;;;;;;5111879;28;20500;-63
2021/12/15 01:54:31;;;;;;;13.30;7.60;;;27.40;99.90;;;;;;5114177;28;20024;-65
2021/12/15 01:56:59;;;;;;;10.48;6.10;;;27.50;99.90;;;;;;5112900;28;20031;-63
2021/12/15 01:59:27;;;;;;;10.57;5.75;;;27.50;99.90;;;;;;5113974;28;20069;-63
2021/12/15 02:01:54;;;;;;;10.75;6.25;;;27.60;99.90;;;;;;5103800;28;20036;-64
2021/12/15 02:04:21;;;;;;;11.07;6.15;;;27.80;99.90;;;;;;5093587;28;20032;-64
2021/12/15 02:06:49;;;;;;;11.63;6.40;;;27.80;99.90;;;;;;5101066;28;20361;-64
2021/12/15 02:09:36;;;;;;;14.30;6.65;;;27.90;99.90;;;;;;5114175;28;20028;-64
2021/12/15 02:12:03;;;;;;;16.23;5.93;;;27.90;99.90;;;;;;5104632;28;20392;-63
2021/12/15 02:14:31;;;;;;;7.95;5.35;;;28.00;99.90;;;;;;5097642;28;20020;-63
2021/12/15 02:16:58;;;;;;;9.48;5.60;;;28.00;99.90;;;;;;5103110;28;20073;-64
2021/12/15 02:19:25;;;;;;;12.32;6.30;;;28.10;99.90;;;;;;5117989;28;20024;-63
2021/12/15 02:21:53;;;;;;;10.57;6.35;;;28.30;99.90;;;;;;5118043;28;20465;-63
2021/12/15 02:24:20;;;;;;;12.07;6.10;;;28.40;99.90;;;;;;5118340;28;20042;-64
2021/12/15 02:26:51;;;;;;;7.32;5.53;;;28.50;99.90;;;;;;5117307;28;20080;-64
2021/12/15 02:29:21;;;;;;;12.45;6.22;;;28.50;99.90;;;;;;5116061;28;20039;-64
2021/12/15 02:34:32;;;;;;;18.23;6.55;;;28.70;99.90;;;;;;5097029;28;20023;-65
2021/12/15 02:39:52;;;;;;;79.18;55.13;;;28.60;99.90;;;;;;5115679;28;20504;-64
2021/12/15 02:42:21;;;;;;;27.15;16.92;;;28.60;99.90;;;;;;5117855;28;20031;-65
2021/12/15 02:44:48;;;;;;;10.15;6.47;;;28.60;99.90;;;;;;5109023;28;20085;-65
2021/12/15 02:47:22;;;;;;;11.00;4.85;;;28.70;99.90;;;;;;5100787;28;20043;-64
2021/12/15 02:49:55;;;;;;;37.72;23.52;;;28.70;99.90;;;;;;5116727;28;20024;-64
2021/12/15 02:52:22;;;;;;;67.93;36.60;;;28.70;99.90;;;;;;5104711;28;20056;-64
2021/12/15 02:54:49;;;;;;;18.48;10.43;;;28.90;99.90;;;;;;5125504;27;20035;-65
2021/12/15 02:57:17;;;;;;;29.70;15.50;;;29.00;99.90;;;;;;5122865;27;20019;-63
2021/12/15 03:00:16;;;;;;;14.35;8.38;;;29.10;99.90;;;;;;5118905;27;20023;-63
2021/12/15 03:07:49;;;;;;;8.43;4.85;;;29.40;99.90;;;;;;5116206;28;20468;-64
2021/12/15 03:15:36;;;;;;;9.18;5.70;;;29.70;99.90;;;;;;5116757;28;20024;-64
2021/12/15 03:18:06;;;;;;;10.90;7.00;;;29.70;99.90;;;;;;5116713;28;20035;-63
2021/12/15 03:20:49;;;;;;;8.40;5.93;;;29.80;99.90;;;;;;5116482;28;20108;-63
2021/12/15 03:23:24;;;;;;;19.77;8.77;;;30.40;99.90;;;;;;5115057;28;20027;-63
2021/12/15 03:25:51;;;;;;;6.82;4.72;;;30.20;99.90;;;;;;5113013;28;20024;-64
2021/12/15 03:36:35;;;;;;;20.38;6.85;;;30.10;99.90;;;;;;5104599;28;20031;-65
2021/12/15 03:39:05;;;;;;;17.77;6.55;;;30.10;99.90;;;;;;5115252;28;20521;-65
2021/12/15 03:41:32;;;;;;;96.38;68.20;;;30.10;99.90;;;;;;5111103;28;20028;-64
2021/12/15 03:44:00;;;;;;;56.03;35.92;;;30.00;99.90;;;;;;5110557;27;20502;-63
2021/12/15 03:46:28;;;;;;;8.95;6.35;;;30.40;99.90;;;;;;5111947;27;20043;-62
2021/12/15 03:48:55;;;;;;;11.88;8.15;;;30.40;99.90;;;;;;5111334;28;20028;-64
2021/12/15 03:51:22;;;;;;;20.80;9.25;;;30.40;99.90;;;;;;5113093;28;20097;-64
2021/12/15 03:53:48;;;;;;;18.33;9.13;;;30.40;99.90;;;;;;5114731;28;20024;-64
2021/12/15 03:56:16;;;;;;;10.95;7.93;;;30.60;99.90;;;;;;5113595;28;20024;-64
2021/12/15 03:58:45;;;;;;;17.30;8.73;;;30.50;99.90;;;;;;5110092;27;20043;-64
2021/12/15 04:01:15;;;;;;;14.77;7.88;;;30.50;99.90;;;;;;5114074;28;20028;-66
2021/12/15 04:03:48;;;;;;;12.52;7.05;;;30.40;99.90;;;;;;5108199;28;20519;-64
2021/12/15 04:06:19;;;;;;;11.48;7.90;;;30.50;99.90;;;;;;5112605;28;20046;-63
2021/12/15 04:08:46;;;;;;;7.60;6.18;;;30.60;99.90;;;;;;5112941;28;20046;-65
2021/12/15 04:11:15;;;;;;;15.95;7.13;;;30.70;99.90;;;;;;5113702;28;20116;-63
2021/12/15 04:13:46;;;;;;;15.02;9.85;;;30.70;99.90;;;;;;5113290;28;20063;-64
2021/12/15 04:16:27;;;;;;;13.32;7.43;;;30.70;99.90;;;;;;5111450;28;20472;-64
2021/12/15 04:18:54;;;;;;;15.47;8.17;;;30.70;99.90;;;;;;5109557;28;20032;-62
2021/12/15 04:21:20;;;;;;;12.52;8.10;;;30.90;99.90;;;;;;5111865;28;20386;-62
2021/12/15 04:23:56;;;;;;;12.32;6.93;;;30.80;99.50;;;;;;5113453;28;20432;-63
2021/12/15 04:26:23;;;;;;;16.23;7.18;;;30.70;99.90;;;;;;5111245;28;20027;-63
2021/12/15 04:28:50;;;;;;;16.67;8.02;;;30.70;99.90;;;;;;5110550;28;20024;-63
2021/12/15 04:31:22;;;;;;;18.60;7.25;;;30.90;99.40;;;;;;5110433;28;20039;-63
2021/12/15 04:33:59;;;;;;;13.85;7.65;;;31.00;98.80;;;;;;5113947;28;20535;-63
2021/12/15 04:36:29;;;;;;;15.85;7.75;;;31.00;96.00;;;;;;5111756;28;20027;-63
2021/12/15 04:38:58;;;;;;;16.42;7.75;;;31.10;98.80;;;;;;5111070;28;20042;-62
2021/12/15 04:41:26;;;;;;;17.48;8.70;;;31.00;97.60;;;;;;5112165;28;20031;-63
2021/12/15 04:43:57;;;;;;;13.98;10.32;;;30.80;97.90;;;;;;5110919;28;20494;-63
2021/12/15 04:46:29;;;;;;;16.48;9.45;;;30.80;99.10;;;;;;5112202;28;20033;-63
2021/12/15 04:48:56;;;;;;;18.45;8.38;;;30.90;98.50;;;;;;5114423;28;20035;-63
2021/12/15 04:51:23;;;;;;;19.70;9.15;;;30.90;98.60;;;;;;5116371;27;20058;-63
2021/12/15 04:53:52;;;;;;;17.40;8.52;;;31.00;98.50;;;;;;5114812;28;20016;-63
2021/12/15 04:56:20;;;;;;;14.82;8.10;;;31.20;97.10;;;;;;5114331;28;20106;-63
2021/12/15 04:58:49;;;;;;;15.43;7.25;;;31.00;97.50;;;;;;5115296;27;20011;-63
2021/12/15 05:01:16;;;;;;;16.15;8.25;;;30.90;97.50;;;;;;5114541;28;20035;-63
2021/12/15 05:03:44;;;;;;;15.48;7.85;;;31.30;98.20;;;;;;5112513;28;20043;-64
2021/12/15 05:06:11;;;;;;;24.17;9.73;;;31.20;96.50;;;;;;5111063;28;20049;-64
2021/12/15 05:08:40;;;;;;;22.50;10.30;;;31.10;97.50;;;;;;5114696;28;20055;-63
2021/12/15 05:11:10;;;;;;;17.80;10.98;;;31.00;97.10;;;;;;5114135;28;20044;-64
2021/12/15 05:13:37;;;;;;;22.70;11.13;;;31.00;97.00;;;;;;5113936;28;20162;-64
2021/12/15 05:16:06;;;;;;;15.40;9.77;;;31.00;97.70;;;;;;5112434;28;20388;-63
2021/12/15 05:18:34;;;;;;;15.45;9.82;;;31.20;96.80;;;;;;5103654;28;20024;-63
2021/12/15 05:21:01;;;;;;;18.63;10.18;;;31.40;95.10;;;;;;5094519;28;20466;-64
2021/12/15 05:23:30;;;;;;;17.98;9.30;;;31.60;95.70;;;;;;5100654;28;20404;-64
2021/12/15 05:25:59;;;;;;;17.48;8.15;;;31.50;94.90;;;;;;5110812;28;20031;-64
2021/12/15 05:28:27;;;;;;;15.38;9.90;;;31.50;94.60;;;;;;5111714;28;20036;-64
2021/12/15 05:30:56;;;;;;;15.45;9.38;;;31.60;95.30;;;;;;5111605;28;20032;-62
2021/12/15 05:33:24;;;;;;;12.75;8.50;;;31.60;94.40;;;;;;5104034;28;20043;-64
2021/12/15 05:35:53;;;;;;;18.52;8.25;;;31.40;94.80;;;;;;5113829;27;20413;-64
2021/12/15 05:38:21;;;;;;;22.15;9.98;;;31.30;95.70;;;;;;5113764;28;20073;-64
2021/12/15 05:40:48;;;;;;;20.77;10.15;;;31.20;96.70;;;;;;5109850;27;20028;-65
2021/12/15 05:43:14;;;;;;;19.58;9.52;;;31.10;97.40;;;;;;5112861;28;20043;-64
2021/12/15 05:45:43;;;;;;;15.98;7.63;;;31.10;98.40;;;;;;5113913;28;20026;-65
2021/12/15 05:48:14;;;;;;;11.60;7.15;;;31.20;96.30;;;;;;5110430;28;20426;-64
2021/12/15 05:50:42;;;;;;;11.07;8.30;;;31.20;96.50;;;;;;5111669;28;20547;-65
2021/12/15 05:53:09;;;;;;;15.93;9.73;;;31.20;95.20;;;;;;5112958;28;20020;-66
2021/12/15 05:55:39;;;;;;;13.30;7.55;;;31.20;95.30;;;;;;5111061;28;20028;-67
2021/12/15 05:58:06;;;;;;;15.00;7.78;;;31.10;95.50;;;;;;5109322;28;20458;-64
2021/12/15 06:00:36;;;;;;;17.30;7.25;;;31.10;95.90;;;;;;5113951;28;20073;-65
2021/12/15 06:03:04;;;;;;;22.10;7.05;;;31.00;96.40;;;;;;5107438;28;20050;-65
2021/12/15 06:05:32;;;;;;;10.32;5.88;;;31.30;95.20;;;;;;5098251;28;20028;-66
2021/12/15 06:07:59;;;;;;;12.77;6.07;;;31.50;94.20;;;;;;5095554;28;20021;-65
2021/12/15 06:10:28;;;;;;;13.45;5.40;;;31.80;94.60;;;;;;5109497;28;20099;-66
2021/12/15 06:12:58;;;;;;;16.67;6.85;;;31.90;93.60;;;;;;5109817;28;20024;-63
2021/12/15 06:15:28;;;;;;;13.88;6.32;;;31.90;92.10;;;;;;5112892;28;20023;-64
2021/12/15 06:18:06;;;;;;;12.95;7.07;;;31.70;93.80;;;;;;5112239;28;20042;-64
2021/12/15 06:20:34;;;;;;;11.75;6.60;;;31.60;95.00;;;;;;5104459;28;20024;-64
2021/12/15 06:23:06;;;;;;;27.63;9.05;;;31.50;94.00;;;;;;5112536;28;20035;-66
2021/12/15 06:25:33;;;;;;;19.08;8.48;;;31.50;96.70;;;;;;5113415;28;20537;-65
2021/12/15 06:27:59;;;;;;;14.38;9.75;;;31.30;98.30;;;;;;5111135;28;20071;-64
2021/12/15 06:30:26;;;;;;;15.75;9.23;;;31.10;98.60;;;;;;5112810;28;20034;-64
2021/12/15 06:32:53;;;;;;;16.33;8.85;;;30.70;98.60;;;;;;5109871;28;20546;-65
2021/12/15 06:35:20;;;;;;;17.70;10.60;;;30.30;98.20;;;;;;5112188;28;20055;-63
2021/12/15 06:37:46;;;;;;;20.63;9.93;;;30.10;99.90;;;;;;5092804;28;20383;-65
2021/12/15 06:40:14;;;;;;;14.77;8.50;;;30.10;99.90;;;;;;5112579;28;20051;-66
2021/12/15 06:42:42;;;;;;;16.08;8.57;;;30.00;99.90;;;;;;5113209;28;20019;-64
2021/12/15 06:45:14;;;;;;;18.63;12.75;;;30.00;99.90;;;;;;5112778;28;20024;-65
2021/12/15 06:58:17;;;;;;;37.50;14.80;;;30.00;99.90;;;;;;5099314;28;20280;-63
2021/12/15 07:00:48;;;;;;;20.25;12.18;;;30.00;99.90;;;;;;5112545;22;20492;-64
2021/12/15 07:03:16;;;;;;;22.55;12.45;;;30.10;99.90;;;;;;5046828;28;20033;-65
2021/12/15 07:05:44;;;;;;;36.05;21.85;;;30.10;99.90;;;;;;5046195;28;20018;-64
2021/12/15 07:08:12;;;;;;;46.83;28.13;;;30.20;99.90;;;;;;5043157;28;20032;-64
2021/12/15 07:10:43;;;;;;;24.52;11.98;;;30.30;99.90;;;;;;5026480;28;20028;-65
2021/12/15 07:13:11;;;;;;;13.98;8.00;;;30.50;99.90;;;;;;5023811;28;20084;-66
2021/12/15 07:15:39;;;;;;;18.15;12.27;;;30.70;99.90;;;;;;5023191;28;20030;-63
2021/12/15 07:18:10;;;;;;;22.75;9.93;;;30.80;99.90;;;;;;5026888;28;20421;-65
2021/12/15 07:23:10;;;;;;;38.90;18.52;;;31.00;99.90;;;;;;5029781;28;20026;-64
2021/12/15 07:25:39;;;;;;;10.60;6.90;;;31.30;99.80;;;;;;5028958;28;20029;-64
2021/12/15 07:28:06;;;;;;;14.65;8.25;;;31.40;97.10;;;;;;5027991;28;20140;-64
2021/12/15 07:30:35;;;;;;;16.02;8.85;;;31.40;98.90;;;;;;5026340;28;20068;-64
2021/12/15 07:33:02;;;;;;;20.13;9.18;;;31.50;99.70;;;;;;5022378;28;20037;-64
2021/12/15 07:35:29;;;;;;;16.20;8.23;;;31.70;98.20;;;;;;5025374;28;20021;-64
2021/12/15 07:37:56;;;;;;;15.50;9.00;;;31.80;97.90;;;;;;5024907;28;20115;-65
2021/12/15 07:40:25;;;;;;;10.65;7.65;;;31.70;97.70;;;;;;5032476;28;20022;-64
2021/12/15 07:45:31;;;;;;;14.45;9.50;;;31.60;96.80;;;;;;5026970;28;20025;-64
2021/12/15 07:48:03;;;;;;;17.80;9.45;;;31.60;97.40;;;;;;5028000;28;20029;-65
2021/12/15 07:50:32;;;;;;;21.15;9.82;;;31.60;97.60;;;;;;5029064;28;20029;-64
2021/12/15 07:52:59;;;;;;;17.33;9.02;;;31.60;97.90;;;;;;5023750;28;20033;-63
2021/12/15 07:55:26;;;;;;;25.30;14.45;;;31.60;97.30;;;;;;5026416;28;20079;-63
2021/12/15 07:57:54;;;;;;;14.45;9.18;;;31.60;97.50;;;;;;5028609;28;20075;-63
2021/12/15 08:00:21;;;;;;;14.00;7.28;;;31.80;95.50;;;;;;5025292;28;20493;-61
2021/12/15 08:02:48;;;;;;;16.15;8.05;;;31.90;94.90;;;;;;5030746;28;20132;-63
2021/12/15 08:05:15;;;;;;;18.65;7.68;;;31.80;95.40;;;;;;5023860;28;20068;-63
2021/12/15 08:07:42;;;;;;;11.38;7.65;;;32.00;94.30;;;;;;5026993;28;20026;-63
2021/12/15 08:10:11;;;;;;;15.05;6.75;;;31.90;95.60;;;;;;5031334;28;20025;-65
2021/12/15 08:12:43;;;;;;;12.07;6.95;;;31.90;93.90;;;;;;5027106;28;20394;-64
2021/12/15 08:15:11;;;;;;;15.90;7.28;;;31.90;93.40;;;;;;5028906;28;20271;-66
2021/12/15 08:17:39;;;;;;;10.68;7.95;;;31.80;93.90;;;;;;5034579;28;20025;-65
2021/12/15 08:20:10;;;;;;;14.73;7.07;;;31.80;94.60;;;;;;5034933;28;20528;-64
2021/12/15 08:22:38;;;;;;;18.58;8.13;;;31.80;94.10;;;;;;5035091;28;20113;-65
2021/12/15 08:25:07;;;;;;;16.38;9.77;;;31.80;94.60;;;;;;5034451;28;20494;-64
2021/12/15 08:27:33;;;;;;;23.63;10.02;;;31.80;93.50;;;;;;5035128;28;20036;-66
2021/12/15 08:30:00;;;;;;;15.50;9.40;;;31.90;94.10;;;;;;5034728;28;20386;-63
2021/12/15 08:32:27;;;;;;;23.80;11.77;;;32.00;93.50;;;;;;5034781;28;20036;-65
2021/12/15 08:34:54;;;;;;;55.13;35.17;;;32.00;93.50;;;;;;5034624;28;20018;-65
2021/12/15 08:37:21;;;;;;;11.98;8.35;;;32.00;93.70;;;;;;5033945;28;20257;-64
2021/12/15 08:39:47;;;;;;;61.67;43.03;;;32.10;92.50;;;;;;5034693;28;20033;-64
2021/12/15 08:42:15;;;;;;;17.73;10.05;;;32.10;93.50;;;;;;5034485;28;20482;-64
2021/12/15 08:44:42;;;;;;;17.73;10.85;;;32.20;93.20;;;;;;5034732;28;20029;-65
2021/12/15 08:47:09;;;;;;;24.48;11.02;;;32.20;93.50;;;;;;5034422;28;20029;-63
2021/12/15 08:49:37;;;;;;;20.15;11.05;;;32.20;92.20;;;;;;5034712;28;20029;-64
2021/12/15 08:52:05;;;;;;;16.52;9.60;;;32.30;92.60;;;;;;5033616;28;20029;-63
2021/12/15 08:54:33;;;;;;;11.35;9.25;;;32.30;91.60;;;;;;5034171;28;20100;-64
2021/12/15 08:56:59;;;;;;;23.58;12.00;;;32.30;92.50;;;;;;5023374;28;20045;-65
2021/12/15 08:59:26;;;;;;;18.33;11.15;;;32.40;91.90;;;;;;5024841;28;20059;-65
2021/12/15 09:01:54;;;;;;;15.70;9.73;;;32.40;91.90;;;;;;5022147;28;20514;-64
2021/12/15 09:04:21;;;;;;;23.73;14.88;;;32.40;91.20;;;;;;5022837;28;20076;-66
2021/12/15 09:06:48;;;;;;;33.63;21.58;;;32.30;91.70;;;;;;5032199;28;20032;-64
2021/12/15 09:09:20;;;;;;;24.23;17.48;;;32.40;92.60;;;;;;5039500;28;20033;-64
2021/12/15 09:11:48;;;;;;;37.55;23.60;;;32.40;90.20;;;;;;5034843;28;20033;-64
2021/12/15 09:14:15;;;;;;;31.02;15.63;;;32.30;91.70;;;;;;5028453;28;20036;-65
2021/12/15 09:16:46;;;;;;;27.83;18.05;;;32.40;91.40;;;;;;5042687;28;20082;-65
2021/12/15 09:19:13;;;;;;;23.48;13.88;;;32.40;91.60;;;;;;5050834;28;20060;-65
2021/12/15 09:21:42;;;;;;;19.83;10.73;;;32.50;90.70;;;;;;5041223;28;20029;-66
2021/12/15 09:24:11;;;;;;;20.02;10.85;;;32.40;89.20;;;;;;5024011;28;20445;-64
2021/12/15 09:26:38;;;;;;;27.52;11.82;;;32.30;90.30;;;;;;5023989;28;20093;-65
2021/12/15 09:29:06;;;;;;;35.42;23.25;;;32.30;90.80;;;;;;5023358;28;20030;-65
2021/12/15 09:31:34;;;;;;;34.50;18.92;;;32.40;91.00;;;;;;5023496;28;20378;-63
2021/12/15 09:34:02;;;;;;;21.42;15.00;;;32.50;91.30;;;;;;5022296;28;20032;-63
2021/12/15 09:36:29;;;;;;;31.25;20.38;;;32.40;91.20;;;;;;5023904;28;20116;-65
2021/12/15 09:39:03;;;;;;;23.58;13.88;;;32.40;90.70;;;;;;5028583;28;20024;-66
2021/12/15 09:41:30;;;;;;;27.70;12.38;;;32.50;90.60;;;;;;5024288;28;20036;-65
2021/12/15 09:44:03;;;;;;;28.33;13.68;;;32.40;90.40;;;;;;5022158;28;20033;-64
2021/12/15 09:46:40;;;;;;;38.75;19.70;;;32.30;90.30;;;;;;5024875;28;20082;-64
2021/12/15 09:57:20;;;;;;;48.47;19.77;;;32.40;92.40;;;;;;5021211;28;20026;-64
2021/12/15 10:02:44;;;;;;;30.95;19.65;;;32.40;92.60;;;;;;5032229;28;20053;-63
2021/12/15 10:18:32;;;;;;;29.63;16.67;;;32.30;92.70;;;;;;5032654;28;19955;-62
2021/12/15 10:20:59;;;;;;;32.47;18.15;;;32.30;92.60;;;;;;5033260;28;20079;-64
2021/12/15 10:23:34;;;;;;;53.60;26.60;;;32.20;92.60;;;;;;5025712;28;20030;-64
2021/12/15 10:26:01;;;;;;;43.22;25.02;;;32.30;92.70;;;;;;5013688;28;20030;-64
2021/12/15 10:28:31;;;;;;;41.55;22.83;;;32.20;93.40;;;;;;5016257;28;20100;-64
2021/12/15 10:31:02;;;;;;;38.03;21.55;;;32.10;92.80;;;;;;5033003;28;20120;-65
2021/12/15 10:33:33;;;;;;;32.25;22.00;;;32.10;93.50;;;;;;5033829;28;20072;-65
2021/12/15 10:36:10;;;;;;;34.03;21.23;;;32.10;93.60;;;;;;5037035;28;20112;-63
2021/12/15 10:38:43;;;;;;;33.42;20.55;;;32.20;93.80;;;;;;5036724;28;20390;-65
2021/12/15 10:41:23;;;;;;;30.42;19.38;;;32.10;93.60;;;;;;5037039;28;20025;-64
2021/12/15 10:44:07;;;;;;;33.28;18.70;;;32.00;93.50;;;;;;5036745;28;20089;-64
2021/12/15 10:46:59;;;;;;;39.28;25.02;;;31.90;93.60;;;;;;5026181;28;20037;-64
2021/12/15 10:49:33;;;;;;;50.30;28.90;;;31.90;94.70;;;;;;5036964;28;20033;-63
2021/12/15 10:52:07;;;;;;;52.63;33.47;;;31.80;94.80;;;;;;5036580;28;20037;-62
2021/12/15 10:54:44;;;;;;;57.40;38.65;;;31.80;94.40;;;;;;5036709;28;20026;-62
2021/12/15 10:57:18;;;;;;;56.08;38.58;;;31.80;94.20;;;;;;5035965;28;20032;-62
2021/12/15 10:59:53;;;;;;;45.78;27.35;;;31.80;94.40;;;;;;5036464;28;20034;-64
2021/12/15 11:02:25;;;;;;;34.05;20.30;;;31.80;94.80;;;;;;5038193;28;20042;-66
2021/12/15 11:05:05;;;;;;;33.03;20.42;;;31.70;94.10;;;;;;5036680;28;20052;-63
2021/12/15 11:07:44;;;;;;;35.70;24.88;;;31.50;94.20;;;;;;5036350;28;20052;-64
2021/12/15 11:10:17;;;;;;;124.13;93.28;;;31.50;95.10;;;;;;5036327;28;20030;-66
2021/12/15 11:12:49;;;;;;;154.32;111.78;;;31.50;95.90;;;;;;5036272;28;20044;-64
2021/12/15 11:15:18;;;;;;;133.88;91.93;;;31.50;96.10;;;;;;5036306;28;20025;-64
2021/12/15 11:18:03;;;;;;;179.80;128.73;;;31.60;95.80;;;;;;5035395;28;20037;-64
2021/12/15 11:20:39;;;;;;;159.23;94.78;;;31.50;96.20;;;;;;5029287;28;20430;-63
2021/12/15 11:23:11;;;;;;;44.75;25.88;;;31.30;97.60;;;;;;5030331;28;20061;-64
2021/12/15 11:26:01;;;;;;;59.45;32.42;;;31.10;97.90;;;;;;5026287;28;20145;-66
2021/12/15 11:28:31;;;;;;;185.10;98.07;;;31.00;98.60;;;;;;5024424;28;20470;-65
2021/12/15 11:31:06;;;;;;;137.52;75.38;;;31.10;98.80;;;;;;5035756;28;20029;-64
2021/12/15 11:33:38;;;;;;;57.75;35.03;;;31.10;98.30;;;;;;5035707;28;20032;-64
2021/12/15 11:36:09;;;;;;;48.05;25.20;;;30.90;98.40;;;;;;5036600;28;20425;-64
2021/12/15 11:38:40;;;;;;;42.95;27.45;;;30.90;97.90;;;;;;5035920;28;20036;-65
2021/12/15 11:41:14;;;;;;;45.20;26.65;;;30.90;99.60;;;;;;5018548;28;20030;-64
2021/12/15 11:43:51;;;;;;;36.22;25.92;;;30.80;99.50;;;;;;5016004;28;20390;-65
2021/12/15 11:46:27;;;;;;;59.72;32.65;;;30.80;98.70;;;;;;5015744;28;20061;-65
2021/12/15 11:48:59;;;;;;;61.75;34.72;;;30.70;99.40;;;;;;5033858;28;20056;-65
2021/12/15 11:51:38;;;;;;;80.90;44.08;;;30.70;99.90;;;;;;5033028;28;20093;-64
2021/12/15 11:54:16;;;;;;;62.75;35.13;;;30.70;99.60;;;;;;5028954;28;20477;-63
2021/12/15 11:56:44;;;;;;;99.30;44.72;;;30.70;99.90;;;;;;5019553;28;20037;-64
2021/12/15 11:59:28;;;;;;;101.75;54.38;;;30.70;99.90;;;;;;5018883;28;20117;-64
2021/12/15 12:02:10;;;;;;;71.60;42.55;;;30.60;99.90;;;;;;5026205;28;20045;-63
2021/12/15 12:04:44;;;;;;;56.20;30.23;;;30.50;99.90;;;;;;5032781;28;20112;-65
2021/12/15 12:07:14;;;;;;;45.70;26.38;;;30.50;99.90;;;;;;5030701;28;20025;-63
2021/12/15 12:09:44;;;;;;;43.75;25.02;;;30.50;99.90;;;;;;5033015;28;20531;-66
2021/12/15 12:12:12;;;;;;;51.17;24.75;;;30.40;99.90;;;;;;5034816;28;20370;-64
2021/12/15 12:17:23;;;;;;;49.53;27.10;;;30.30;99.90;;;;;;5022188;28;20017;-64
2021/12/15 12:19:55;;;;;;;59.55;27.95;;;30.20;99.90;;;;;;5031556;28;20032;-64
2021/12/15 12:22:25;;;;;;;44.90;27.05;;;30.10;99.90;;;;;;5035267;28;20057;-65
2021/12/15 12:24:56;;;;;;;54.72;26.92;;;30.10;99.90;;;;;;5021337;28;20510;-64
2021/12/15 12:27:26;;;;;;;63.97;33.13;;;30.20;99.90;;;;;;5016596;28;20057;-65
2021/12/15 12:29:56;;;;;;;53.60;30.88;;;30.20;99.90;;;;;;5013820;28;20387;-63
2021/12/15 12:32:23;;;;;;;46.78;28.27;;;30.30;99.90;;;;;;5014450;28;20064;-62
2021/12/15 12:34:52;;;;;;;48.63;30.45;;;30.30;99.90;;;;;;5014990;28;20022;-64
2021/12/15 12:37:20;;;;;;;55.25;34.65;;;30.20;99.90;;;;;;5030274;28;20112;-64
2021/12/15 12:39:53;;;;;;;60.33;34.28;;;30.20;99.90;;;;;;5034904;28;20025;-64
2021/12/15 12:42:27;;;;;;;55.03;36.15;;;30.20;99.90;;;;;;5032267;28;20459;-63
2021/12/15 12:45:09;;;;;;;56.28;34.40;;;30.20;99.90;;;;;;5034615;28;20371;-65
2021/12/15 12:47:42;;;;;;;53.47;31.45;;;30.20;99.90;;;;;;5032974;28;20030;-65
2021/12/15 12:50:50;;;;;;;56.22;30.13;;;30.10;99.90;;;;;;5034613;28;20045;-66
2021/12/15 13:00:56;;;;;;;49.13;29.35;;;30.10;99.90;;;;;;5050960;28;20025;-67
2021/12/15 13:03:31;;;;;;;47.63;28.85;;;30.10;99.90;;;;;;5054081;28;20039;-64
2021/12/15 13:06:03;;;;;;;52.38;32.33;;;30.10;99.90;;;;;;5045379;28;20021;-67
2021/12/15 13:08:36;;;;;;;57.38;37.70;;;30.10;99.90;;;;;;5025130;28;20022;-67
2021/12/15 13:11:18;;;;;;;69.32;34.60;;;30.10;99.90;;;;;;5024069;28;20075;-66
2021/12/15 13:14:08;;;;;;;60.58;31.80;;;30.10;99.90;;;;;;5037798;28;20026;-63
2021/12/15 13:16:52;;;;;;;50.22;30.42;;;30.10;99.90;;;;;;5033662;28;20078;-65
2021/12/15 13:19:32;;;;;;;47.17;29.35;;;30.00;99.90;;;;;;5027600;28;20064;-63
2021/12/15 13:30:41;;;;;;;53.22;29.27;;;30.10;99.90;;;;;;5013801;28;20113;-63
2021/12/15 13:33:13;;;;;;;75.72;53.03;;;30.00;99.90;;;;;;5032140;28;20064;-64
2021/12/15 13:35:49;;;;;;;54.40;36.25;;;30.00;99.90;;;;;;5030224;28;20021;-63
2021/12/15 13:38:21;;;;;;;197.10;139.52;;;30.00;99.90;;;;;;5030075;28;20112;-64
2021/12/15 13:41:13;;;;;;;66.80;39.03;;;30.10;99.90;;;;;;5040563;28;20159;-64
2021/12/15 13:43:52;;;;;;;66.68;44.42;;;30.00;99.90;;;;;;5032703;28;20025;-65
2021/12/15 13:46:32;;;;;;;75.43;52.00;;;30.00;99.90;;;;;;5021888;28;20040;-64
2021/12/15 13:49:03;;;;;;;64.53;37.67;;;30.00;99.90;;;;;;5032526;28;20033;-64
2021/12/15 13:51:53;;;;;;;52.38;33.03;;;30.00;99.90;;;;;;5017748;28;20252;-64
2021/12/15 13:54:35;;;;;;;47.70;28.83;;;30.00;99.90;;;;;;5040589;28;20037;-64
2021/12/15 13:57:01;;;;;;;;;;;30.00;99.90;;;;;;5040273;28;20037;-65
2021/12/15 13:59:35;;;;;;;38.55;24.98;;;30.00;99.90;;;;;;5023614;28;19913;-64
2021/12/15 14:02:16;;;;;;;39.42;27.17;;;30.00;99.90;;;;;;5032059;28;20050;-63
2021/12/15 14:04:56;;;;;;;41.90;26.95;;;29.90;99.90;;;;;;5032250;28;20064;-64
2021/12/15 14:07:29;;;;;;;41.63;28.67;;;29.90;99.90;;;;;;5018494;28;20111;-63
2021/12/15 14:09:59;;;;;;;45.80;30.35;;;29.80;99.90;;;;;;5036501;28;20029;-64
2021/12/15 14:12:47;;;;;;;45.47;30.55;;;29.80;99.90;;;;;;5046300;28;20385;-63
2021/12/15 14:15:33;;;;;;;52.35;30.98;;;29.80;99.90;;;;;;5036076;28;20026;-64
2021/12/15 14:18:01;;;;;;;53.13;32.35;;;29.80;99.90;;;;;;5016669;28;20022;-64
2021/12/15 14:20:31;;;;;;;49.83;31.73;;;29.70;99.90;;;;;;5029745;28;20474;-63
2021/12/15 14:23:02;;;;;;;50.45;32.58;;;29.60;99.90;;;;;;5036930;28;20037;-64